Airfield :
LOGIN :

Register | Disclaimer

   EN    FR    IT 

 










Legend :    VFR   Marginal VFR   IFR   Intensive IFR   Very Intensive IFR
Visi :
Ceiling :
>= 8 km
>= 3000ft
5 to 8 km
1000 to 3000 ft
1500m to 5 km
500 to 1000 ft
800 to 1500m
200 to 500 ft
< 800m
< 200 ft
Symbols :   Thunderstorms  Fog  Heavy snow  Heavy precipitations  Wind > 20 kt
SIGMETs :     Misc.  Thunderstorms  Icing  Turbulence  Mountain Waves  Volcanic Ashes







- Airport Elevation : 1860 ft
- IATA code : GRX


LEGR - Granada

CURRENT METAR :
  • 130630Z 17004KT 6000 -RA FEW015 SCT030 BKN040 09/08 Q1017

EXPIRED METARs :
  • 130600Z 23003KT 200V260 6000 FEW015 SCT030 BKN050 09/08 Q1017
  • 130530Z 29005KT 6000 FEW015 SCT030 BKN080 08/07 Q1017
  • 130500Z 22003KT 190V250 5000 BR SCT015 BKN100 08/07 Q1016
  • 130430Z AUTO 00000KT 4200 BR SCT090 07/07 Q1017
  • 130400Z AUTO VRB02KT 4900 BR FEW077 BKN090 08/07 Q1017

TAF AMD TAF LEGR
Valid from the 13 at 05:00 until the 14 at 03:00 UTC


130555Z 1305/1403 22005KT CAVOK TX15/1315Z TN07/1323Z
TEMPO 1305/1318 4000 RA BKN014
BECMG 1308/1310 29012KT
PROB40
TEMPO 1308/1318 29015G25KT
No reported NOTAMs for that airfield.
3 SIGMETs reported for the Madrid FIR (LECM) :
 
Severe turbulence
LECM SIGMET 3 VALID 130540/130800 LEVA
LECM MADRID UIR SEV TURB OBS AT 0540Z WI N4340 W00211 - N4247 W00209 - N4243 W00113 - N4309 W00124 - N4340 W00211 FL360/380 STNR NC=
Severe turbulence
LECM SIGMET 2 VALID 130600/131000 LEVA
LECM MADRID FIR/UIR SEV TURB FCST W OF LINE N3757 W00501 - N3554 W00417 FL240/340 MOV E NC=
Severe turbulence
LECM SIGMET 1 VALID 130400/130800 LEVA
LECM MADRID FIR SEV TURB FCST W OF LINE N4435 W006 - N3551 W00506 SFC/FL220 MOV E NC=



MET'MAP, your aeronautical weather chart ! - Copyright ORBIFLY December 2007 - Disclaimer

ORBIFLY MET'MAP TEAM :

Programming & Development : Alexandra Zaïnal
Concept & Development : Baudouin d'Aumeries
Co-Development & Prog : Marc-Olivier Méhu
Technical & hardware support : Manuel Goepfert

Contact : metmap@orbifly.com




SOURCES & CREDITS :

   NOAA